createdAt,value
2022-12-25T00:05:44.377Z,8.13
2022-12-25T00:13:18.540Z,8.85
2022-12-25T00:21:02.453Z,8.77
2022-12-25T00:28:37.101Z,10.43
2022-12-25T00:43:47.528Z,6.95
2022-12-25T00:51:22.783Z,19.47
2022-12-25T00:58:57.109Z,13.27
2022-12-25T01:06:32.643Z,11.30
2022-12-25T01:14:06.701Z,9.30
2022-12-25T01:21:42.091Z,10.02
2022-12-25T01:29:16.002Z,8.90
2022-12-25T01:36:51.466Z,9.67
2022-12-25T01:45:25.561Z,7.72
2022-12-25T01:53:00.908Z,10.40
2022-12-25T02:00:34.731Z,10.25
2022-12-25T02:08:12.287Z,10.17
2022-12-25T02:15:55.775Z,10.77
2022-12-25T02:23:58.731Z,12.68
2022-12-25T02:31:46.478Z,12.52
2022-12-25T02:39:42.603Z,10.55
2022-12-25T02:47:36.750Z,11.48
2022-12-25T02:55:33.539Z,11.30
2022-12-25T03:03:28.288Z,15.18
2022-12-25T03:11:22.179Z,16.58
2022-12-25T03:18:59.473Z,16.63
2022-12-25T03:26:51.744Z,14.95
2022-12-25T03:34:56.890Z,18.40
2022-12-25T03:43:04.196Z,17.58
2022-12-25T03:51:02.831Z,19.30
2022-12-25T03:58:54.317Z,16.00
2022-12-25T04:06:47.103Z,16.42
2022-12-25T04:14:38.559Z,17.95
2022-12-25T04:22:31.292Z,18.90
2022-12-25T04:30:23.602Z,20.73
2022-12-25T04:37:59.142Z,17.60
2022-12-25T04:45:33.172Z,22.77
2022-12-25T04:53:08.515Z,22.33
2022-12-25T05:00:42.781Z,19.02
2022-12-25T05:08:17.938Z,19.85
2022-12-25T05:15:51.925Z,15.57
2022-12-25T05:23:27.268Z,20.52
2022-12-25T05:31:01.833Z,16.60
2022-12-25T05:38:37.281Z,14.73
2022-12-25T05:46:12.296Z,15.95
2022-12-25T05:53:47.539Z,15.48
2022-12-25T06:01:23.793Z,11.88
2022-12-25T06:08:59.047Z,11.63
2022-12-25T06:16:37.969Z,10.77
2022-12-25T06:24:20.855Z,10.35
2022-12-25T06:31:57.629Z,11.45
2022-12-25T06:39:33.460Z,12.75
2022-12-25T06:47:07.209Z,9.63
2022-12-25T06:54:42.455Z,8.87
2022-12-25T07:02:20.577Z,9.48
2022-12-25T07:09:55.931Z,10.18
2022-12-25T07:17:30.029Z,7.82
2022-12-25T07:25:05.820Z,7.65
2022-12-25T07:32:43.241Z,7.55
2022-12-25T07:40:20.874Z,8.38
2022-12-25T07:47:55.227Z,10.55
2022-12-25T07:55:30.849Z,10.05
2022-12-25T08:03:05.320Z,9.07
2022-12-25T08:10:46.278Z,8.02
2022-12-25T08:18:22.239Z,9.05
2022-12-25T08:26:05.430Z,8.90
2022-12-25T08:33:39.864Z,6.60
2022-12-25T08:41:16.224Z,7.72
2022-12-25T08:48:51.561Z,8.45
2022-12-25T08:56:27.764Z,14.60
2022-12-25T09:04:01.651Z,12.45
2022-12-25T09:11:36.925Z,10.70
2022-12-25T09:19:10.820Z,11.15
2022-12-25T09:26:46.164Z,13.82
2022-12-25T09:34:20.365Z,22.58
2022-12-25T09:41:59.464Z,11.35
2022-12-25T09:49:39.996Z,13.18
2022-12-25T09:57:16.338Z,14.85
2022-12-25T10:05:04.576Z,13.60
2022-12-25T10:12:53.697Z,14.88
2022-12-25T10:20:38.666Z,12.18
2022-12-25T10:28:16.593Z,25.33
2022-12-25T10:35:51.137Z,21.55
2022-12-25T10:43:32.345Z,22.17
2022-12-25T10:51:06.935Z,20.40
2022-12-25T10:58:42.199Z,21.77
2022-12-25T11:06:25.962Z,26.10
2022-12-25T11:14:04.002Z,29.65
2022-12-25T11:21:38.627Z,28.50
2022-12-25T11:29:24.628Z,26.08
2022-12-25T11:37:00.532Z,26.08
2022-12-25T11:44:45.223Z,38.42
2022-12-25T11:52:21.185Z,29.48
2022-12-25T12:00:01.824Z,34.00
2022-12-25T12:07:37.130Z,31.38
2022-12-25T12:15:19.883Z,20.90
2022-12-25T12:22:53.904Z,21.02
2022-12-25T12:30:32.345Z,22.50
2022-12-25T12:38:12.045Z,17.77
2022-12-25T12:45:47.454Z,24.30
2022-12-25T12:53:32.974Z,17.98
2022-12-25T13:01:17.375Z,19.13
2022-12-25T13:09:04.411Z,20.40
2022-12-25T13:16:42.313Z,21.95
2022-12-25T13:24:21.735Z,19.83
2022-12-25T13:31:58.086Z,18.70
2022-12-25T13:39:32.614Z,21.92
2022-12-25T13:47:20.639Z,20.52
2022-12-25T13:54:56.647Z,18.90
2022-12-25T14:02:36.680Z,17.15
2022-12-25T14:10:14.454Z,16.25
2022-12-25T14:17:51.105Z,18.75
2022-12-25T14:25:30.807Z,22.58
2022-12-25T14:33:07.782Z,24.23
2022-12-25T14:40:45.292Z,22.25
2022-12-25T14:48:25.448Z,11.32
2022-12-25T14:55:59.781Z,15.13
2022-12-25T15:03:38.156Z,21.47
2022-12-25T15:11:12.063Z,21.15
2022-12-25T15:18:50.430Z,17.60
2022-12-25T15:26:25.056Z,17.70
2022-12-25T15:41:55.983Z,17.02
2022-12-25T15:49:31.217Z,19.67
2022-12-25T15:57:07.707Z,22.35
2022-12-25T16:04:43.073Z,21.10
2022-12-25T16:12:17.324Z,23.73
2022-12-25T16:19:52.749Z,19.75
2022-12-25T16:27:26.841Z,16.05
2022-12-25T16:35:02.121Z,22.87
2022-12-25T16:42:37.338Z,22.45
2022-12-25T16:50:13.079Z,18.23
2022-12-25T16:57:48.440Z,23.35
2022-12-25T17:05:24.250Z,22.30
2022-12-25T17:12:58.164Z,26.42
2022-12-25T17:20:33.579Z,20.40
2022-12-25T17:28:07.853Z,24.58
2022-12-25T17:35:43.147Z,28.95
2022-12-25T17:43:21.018Z,21.40
2022-12-25T17:51:01.604Z,25.92
2022-12-25T17:58:35.549Z,21.90
2022-12-25T18:06:13.403Z,25.30
2022-12-25T18:13:50.122Z,21.40
2022-12-25T18:21:25.413Z,25.38
2022-12-25T18:28:59.330Z,19.30
2022-12-25T18:36:35.158Z,21.17
2022-12-25T18:44:10.047Z,19.08
2022-12-25T18:51:45.606Z,22.73
2022-12-25T18:59:19.750Z,20.38
2022-12-25T19:06:55.197Z,24.30
2022-12-25T19:14:29.302Z,27.65
2022-12-25T19:22:04.604Z,26.87
2022-12-25T19:29:38.807Z,22.17
2022-12-25T19:37:15.141Z,21.40
2022-12-25T19:44:50.708Z,21.90
2022-12-25T19:52:26.099Z,24.75
2022-12-25T20:00:00.154Z,19.48
2022-12-25T20:07:35.528Z,20.07
2022-12-25T20:15:10.490Z,20.75
2022-12-25T20:22:45.740Z,22.10
2022-12-25T20:30:19.839Z,23.98
2022-12-25T20:37:55.260Z,23.57
2022-12-25T20:45:29.439Z,22.20
2022-12-25T20:53:04.860Z,20.23
2022-12-25T21:00:40.307Z,22.80
2022-12-25T21:08:29.063Z,18.45
2022-12-25T21:16:06.966Z,22.80
2022-12-25T21:23:43.126Z,23.65
2022-12-25T21:31:18.041Z,21.70
2022-12-25T21:38:58.425Z,18.10
2022-12-25T21:46:33.098Z,18.15
2022-12-25T21:54:09.242Z,15.80
2022-12-25T22:01:44.332Z,16.05
2022-12-25T22:09:20.006Z,19.25
2022-12-25T22:17:11.400Z,13.50
2022-12-25T22:24:46.641Z,14.52
2022-12-25T22:32:21.393Z,16.73
2022-12-25T22:47:30.719Z,17.00
2022-12-25T22:55:07.699Z,16.37
2022-12-25T23:02:41.637Z,14.88
2022-12-25T23:10:17.058Z,16.43
2022-12-25T23:18:08.438Z,15.68
2022-12-25T23:26:02.299Z,13.00
2022-12-25T23:33:36.404Z,12.75
2022-12-25T23:41:11.689Z,13.40
2022-12-25T23:48:46.873Z,11.13
2022-12-25T23:56:22.494Z,14.23
